createdAt,value
2018-07-26T00:01:53.346Z,10.77
2018-07-26T00:04:23.143Z,10.63
2018-07-26T00:06:53.147Z,10.73
2018-07-26T00:09:22.748Z,11.17
2018-07-26T00:11:52.494Z,11.00
2018-07-26T00:14:22.440Z,12.37
2018-07-26T00:16:52.384Z,13.73
2018-07-26T00:19:22.096Z,11.47
2018-07-26T00:21:52.154Z,12.20
2018-07-26T00:24:21.828Z,12.10
2018-07-26T00:26:51.658Z,12.60
2018-07-26T00:29:21.248Z,11.67
2018-07-26T00:31:51.132Z,11.33
2018-07-26T00:34:21.130Z,11.30
2018-07-26T00:36:50.926Z,12.43
2018-07-26T00:39:20.706Z,12.90
2018-07-26T00:41:50.441Z,12.53
2018-07-26T00:44:20.335Z,10.87
2018-07-26T00:46:50.104Z,12.60
2018-07-26T00:49:19.971Z,11.87
2018-07-26T00:51:49.946Z,12.57
2018-07-26T00:54:19.503Z,12.07
2018-07-26T00:56:49.197Z,12.27
2018-07-26T00:59:18.802Z,11.67
2018-07-26T01:01:48.509Z,11.00
2018-07-26T01:04:18.374Z,11.90
2018-07-26T01:06:48.077Z,13.13
2018-07-26T01:09:18.100Z,11.50
2018-07-26T01:11:47.774Z,12.67
2018-07-26T01:14:17.714Z,11.50
2018-07-26T01:16:47.497Z,11.30
2018-07-26T01:19:17.414Z,11.00
2018-07-26T01:21:47.333Z,11.30
2018-07-26T01:24:17.016Z,12.50
2018-07-26T01:26:46.642Z,12.47
2018-07-26T01:29:18.972Z,11.80
2018-07-26T01:31:51.426Z,12.00
2018-07-26T01:34:21.817Z,13.53
2018-07-26T01:36:51.602Z,11.47
2018-07-26T01:39:21.163Z,13.43
2018-07-26T01:41:51.362Z,12.70
2018-07-26T01:44:25.439Z,11.17
2018-07-26T01:46:55.363Z,12.47
2018-07-26T01:49:25.102Z,11.97
2018-07-26T01:51:55.119Z,12.50
2018-07-26T01:54:24.664Z,11.87
2018-07-26T01:56:54.655Z,12.43
2018-07-26T01:59:24.472Z,12.57
2018-07-26T02:01:54.327Z,12.20
2018-07-26T02:04:24.319Z,11.47
2018-07-26T02:06:54.038Z,11.83
2018-07-26T02:09:23.640Z,12.17
2018-07-26T02:11:53.291Z,11.80
2018-07-26T02:14:28.135Z,11.43
2018-07-26T02:16:58.264Z,13.10
2018-07-26T02:19:28.032Z,12.57
2018-07-26T02:21:57.789Z,12.63
2018-07-26T02:24:27.456Z,12.97
2018-07-26T02:26:57.260Z,13.60
2018-07-26T02:29:26.962Z,14.57
2018-07-26T02:31:56.547Z,13.13
2018-07-26T02:34:26.140Z,15.00
2018-07-26T02:36:55.918Z,13.10
2018-07-26T02:39:25.806Z,14.87
2018-07-26T02:41:55.380Z,15.33
2018-07-26T02:44:24.959Z,14.47
2018-07-26T02:46:54.590Z,15.10
2018-07-26T02:49:24.801Z,14.80
2018-07-26T02:51:54.351Z,14.97
2018-07-26T02:54:24.096Z,15.17
2018-07-26T02:56:53.958Z,14.60
2018-07-26T02:59:23.933Z,15.57
2018-07-26T03:01:53.699Z,14.70
2018-07-26T03:04:23.528Z,15.90
2018-07-26T03:06:53.290Z,15.70
2018-07-26T03:09:22.925Z,15.53
2018-07-26T03:11:52.551Z,15.33
2018-07-26T03:14:22.508Z,14.77
2018-07-26T03:16:52.288Z,14.83
2018-07-26T03:19:21.874Z,15.57
2018-07-26T03:21:51.672Z,15.17
2018-07-26T03:24:21.391Z,15.03
2018-07-26T03:26:51.285Z,14.13
2018-07-26T03:29:21.111Z,14.13
2018-07-26T03:31:50.860Z,13.30
2018-07-26T03:34:20.592Z,14.30
2018-07-26T03:36:50.491Z,12.50
2018-07-26T03:39:20.242Z,14.07
2018-07-26T03:41:49.974Z,11.73
2018-07-26T03:44:19.841Z,12.83
2018-07-26T03:46:49.426Z,12.60
2018-07-26T03:49:19.085Z,12.93
2018-07-26T03:51:48.678Z,14.17
2018-07-26T03:54:18.434Z,13.50
2018-07-26T03:56:48.110Z,14.17
2018-07-26T03:59:17.884Z,13.47
2018-07-26T04:01:47.453Z,13.40
2018-07-26T04:04:16.976Z,13.17
2018-07-26T04:06:46.886Z,12.00
2018-07-26T04:09:16.843Z,14.43
2018-07-26T04:11:47.095Z,12.77
2018-07-26T04:14:16.868Z,12.87
2018-07-26T04:16:46.595Z,13.37
2018-07-26T04:19:16.182Z,11.30
2018-07-26T04:21:45.951Z,12.70
2018-07-26T04:24:15.459Z,12.67
2018-07-26T04:26:45.287Z,12.70
2018-07-26T04:29:15.047Z,12.70
2018-07-26T04:31:44.875Z,12.53
2018-07-26T04:34:14.743Z,12.80
2018-07-26T04:36:44.539Z,12.70
2018-07-26T04:39:14.501Z,11.93
2018-07-26T04:41:44.086Z,13.17
2018-07-26T04:44:13.961Z,12.60
2018-07-26T04:46:43.727Z,12.70
2018-07-26T04:49:13.469Z,11.30
2018-07-26T04:51:43.118Z,12.30
2018-07-26T04:54:12.775Z,12.30
2018-07-26T04:56:42.458Z,11.00
2018-07-26T04:59:12.206Z,12.00
2018-07-26T05:01:41.827Z,10.17
2018-07-26T05:04:11.727Z,10.53
2018-07-26T05:06:41.215Z,11.13
2018-07-26T05:09:12.280Z,12.60
2018-07-26T05:11:42.118Z,12.37
2018-07-26T05:14:12.038Z,11.40
2018-07-26T05:16:41.733Z,11.50
2018-07-26T05:19:11.377Z,11.03
2018-07-26T05:21:40.885Z,11.73
2018-07-26T05:24:11.022Z,11.53
2018-07-26T05:26:40.569Z,12.10
2018-07-26T05:29:10.152Z,12.10
2018-07-26T05:31:39.953Z,12.13
2018-07-26T05:34:10.120Z,11.87
2018-07-26T05:36:40.148Z,11.23
2018-07-26T05:39:11.567Z,12.40
2018-07-26T05:41:41.998Z,11.10
2018-07-26T05:44:11.690Z,12.23
2018-07-26T05:46:41.326Z,13.83
2018-07-26T05:49:11.126Z,13.67
2018-07-26T05:51:41.010Z,12.37
2018-07-26T05:54:10.776Z,13.70
2018-07-26T05:56:40.584Z,12.93
2018-07-26T05:59:10.284Z,12.87
2018-07-26T06:01:40.164Z,14.53
2018-07-26T06:04:09.790Z,14.30
2018-07-26T06:06:39.701Z,15.47
2018-07-26T06:09:11.240Z,15.10
2018-07-26T06:11:41.618Z,15.07
2018-07-26T06:14:11.388Z,15.27
2018-07-26T06:16:41.309Z,14.87
2018-07-26T06:19:11.327Z,14.03
2018-07-26T06:21:41.060Z,11.30
2018-07-26T06:24:10.791Z,10.93
2018-07-26T06:26:40.614Z,11.80
2018-07-26T06:29:10.545Z,11.67
2018-07-26T06:31:40.167Z,11.37
2018-07-26T06:34:10.190Z,11.60
2018-07-26T06:36:39.983Z,10.70
2018-07-26T06:39:12.063Z,12.03
2018-07-26T06:41:42.304Z,11.97
2018-07-26T06:44:12.199Z,12.63
2018-07-26T06:46:42.114Z,12.70
2018-07-26T06:49:12.050Z,12.07
2018-07-26T06:51:41.719Z,10.47
2018-07-26T06:54:11.391Z,12.33
2018-07-26T06:56:41.105Z,12.23
2018-07-26T06:59:11.504Z,13.30
2018-07-26T07:01:41.123Z,10.90
2018-07-26T07:04:10.794Z,11.90
2018-07-26T07:06:40.334Z,10.67
2018-07-26T07:09:12.163Z,11.33
2018-07-26T07:11:42.063Z,11.33
2018-07-26T07:14:11.631Z,16.30
2018-07-26T07:16:41.259Z,9.93
2018-07-26T07:19:11.047Z,9.83
2018-07-26T07:21:41.000Z,10.47
2018-07-26T07:24:14.888Z,10.47
2018-07-26T07:26:44.844Z,10.50
2018-07-26T07:29:15.027Z,10.13
2018-07-26T07:31:44.914Z,10.60
2018-07-26T07:34:14.865Z,10.57
2018-07-26T07:36:44.562Z,9.33
2018-07-26T07:39:14.905Z,10.70
2018-07-26T07:41:44.430Z,10.03
2018-07-26T07:44:14.154Z,9.70
2018-07-26T07:46:43.979Z,8.70
2018-07-26T07:49:13.725Z,9.00
2018-07-26T07:51:43.430Z,11.30
2018-07-26T07:54:13.179Z,8.53
2018-07-26T07:56:42.981Z,11.63
2018-07-26T07:59:12.787Z,12.03
2018-07-26T08:01:42.714Z,9.23
2018-07-26T08:04:12.491Z,9.33
2018-07-26T08:06:42.081Z,9.03
2018-07-26T08:09:12.435Z,7.85
2018-07-26T08:11:42.058Z,9.38
2018-07-26T08:14:11.663Z,9.23
2018-07-26T08:16:41.312Z,10.85
2018-07-26T08:19:10.920Z,9.65
2018-07-26T08:21:40.871Z,9.40
2018-07-26T08:24:10.471Z,8.75
2018-07-26T08:26:40.386Z,8.78
2018-07-26T08:29:10.275Z,9.33
2018-07-26T08:31:40.227Z,8.68
2018-07-26T08:34:10.002Z,7.78
2018-07-26T08:36:39.895Z,6.97
2018-07-26T08:39:11.367Z,7.83
2018-07-26T08:41:41.167Z,8.35
2018-07-26T08:44:10.780Z,8.58
2018-07-26T08:46:40.842Z,6.90
2018-07-26T08:49:10.572Z,7.67
2018-07-26T08:51:40.574Z,8.08
2018-07-26T08:54:10.426Z,8.48
2018-07-26T08:56:40.311Z,7.97
2018-07-26T08:59:10.218Z,7.53
2018-07-26T09:01:40.007Z,8.43
2018-07-26T09:04:09.646Z,7.78
2018-07-26T09:06:39.503Z,8.10
2018-07-26T09:09:11.639Z,7.28
2018-07-26T09:11:41.360Z,8.00
2018-07-26T09:14:10.997Z,7.95
2018-07-26T09:16:41.188Z,7.90
2018-07-26T09:19:10.796Z,9.45
2018-07-26T09:21:40.910Z,8.13
2018-07-26T09:24:10.831Z,7.17
2018-07-26T09:26:40.764Z,8.85
2018-07-26T09:29:10.508Z,7.35
2018-07-26T09:31:40.695Z,7.95
2018-07-26T09:34:11.457Z,8.08
2018-07-26T09:36:41.206Z,7.92
2018-07-26T09:39:13.803Z,9.65
2018-07-26T09:41:43.570Z,8.13
2018-07-26T09:44:13.249Z,7.80
2018-07-26T09:46:43.453Z,9.48
2018-07-26T09:49:14.752Z,6.72
2018-07-26T09:51:44.729Z,8.25
2018-07-26T09:54:14.462Z,9.20
2018-07-26T09:56:45.367Z,8.35
2018-07-26T09:59:15.063Z,7.62
2018-07-26T10:01:45.942Z,6.50
2018-07-26T10:04:15.494Z,6.70
2018-07-26T10:06:45.263Z,6.65
2018-07-26T10:09:15.209Z,7.65
2018-07-26T10:11:45.150Z,7.45
2018-07-26T10:14:14.936Z,8.40
2018-07-26T10:16:44.548Z,7.05
2018-07-26T10:19:14.639Z,7.78
2018-07-26T10:21:44.854Z,7.10
2018-07-26T10:24:14.854Z,6.25
2018-07-26T10:26:45.112Z,6.65
2018-07-26T10:29:15.047Z,7.65
2018-07-26T10:31:45.106Z,6.83
2018-07-26T10:34:15.526Z,6.65
2018-07-26T10:36:45.601Z,8.03
2018-07-26T10:39:15.651Z,7.08
2018-07-26T10:41:45.476Z,6.97
2018-07-26T10:44:16.440Z,6.67
2018-07-26T10:46:46.048Z,7.35
2018-07-26T10:49:15.684Z,7.55
2018-07-26T10:51:45.383Z,7.10
2018-07-26T10:54:15.000Z,6.12
2018-07-26T10:56:44.678Z,7.75
2018-07-26T10:59:14.487Z,7.10
2018-07-26T11:01:44.204Z,7.15
2018-07-26T11:04:13.999Z,6.92
2018-07-26T11:06:44.076Z,8.30
2018-07-26T11:09:13.729Z,6.67
2018-07-26T11:11:43.649Z,7.15
2018-07-26T11:14:13.533Z,7.67
2018-07-26T11:16:43.414Z,5.92
2018-07-26T11:19:13.196Z,5.80
2018-07-26T11:21:42.932Z,6.37
2018-07-26T11:24:12.628Z,6.55
2018-07-26T11:26:42.468Z,6.78
2018-07-26T11:29:13.656Z,6.65
2018-07-26T11:31:44.131Z,7.03
2018-07-26T11:34:15.113Z,6.10
2018-07-26T11:36:47.090Z,5.87
2018-07-26T11:39:17.018Z,6.75
2018-07-26T11:41:47.010Z,7.83
2018-07-26T11:44:17.506Z,6.15
2018-07-26T11:46:47.996Z,5.97
2018-07-26T11:49:18.558Z,6.15
2018-07-26T11:51:49.251Z,5.75
2018-07-26T11:54:20.010Z,6.55
2018-07-26T11:56:51.565Z,6.83
2018-07-26T11:59:23.007Z,6.83
2018-07-26T12:01:53.616Z,5.60
2018-07-26T12:04:23.411Z,5.97
2018-07-26T12:06:53.407Z,7.08
2018-07-26T12:09:23.481Z,7.20
2018-07-26T12:11:53.180Z,5.37
2018-07-26T12:14:23.240Z,6.40
2018-07-26T12:16:53.090Z,4.25
2018-07-26T12:19:22.826Z,4.15
2018-07-26T12:21:59.074Z,4.28
2018-07-26T12:24:28.646Z,3.65
2018-07-26T12:26:58.268Z,3.83
2018-07-26T12:29:27.874Z,6.08
2018-07-26T12:31:57.728Z,4.58
2018-07-26T12:34:27.868Z,4.00
2018-07-26T12:36:58.276Z,5.05
2018-07-26T12:39:28.099Z,4.12
2018-07-26T12:41:57.963Z,4.80
2018-07-26T12:44:27.651Z,4.37
2018-07-26T12:46:57.367Z,4.83
2018-07-26T12:49:27.138Z,12.50
2018-07-26T12:51:56.829Z,5.95
2018-07-26T12:54:26.699Z,4.67
2018-07-26T12:56:56.354Z,5.00
2018-07-26T12:59:26.031Z,5.25
2018-07-26T13:01:55.683Z,5.08
2018-07-26T13:04:25.354Z,5.75
2018-07-26T13:06:55.050Z,5.80
2018-07-26T13:09:25.008Z,6.17
2018-07-26T13:11:54.563Z,4.67
2018-07-26T13:14:24.538Z,4.20
2018-07-26T13:16:54.642Z,5.22
2018-07-26T13:19:24.398Z,4.78
2018-07-26T13:21:54.187Z,4.17
2018-07-26T13:24:24.194Z,5.55
2018-07-26T13:26:53.959Z,5.70
2018-07-26T13:29:23.883Z,5.50
2018-07-26T13:31:53.495Z,6.28
2018-07-26T13:34:24.622Z,4.67
2018-07-26T13:36:56.148Z,28.52
2018-07-26T13:39:25.963Z,6.78
2018-07-26T13:41:57.074Z,6.25
2018-07-26T13:44:26.962Z,12.07
2018-07-26T13:46:57.349Z,6.20
2018-07-26T13:49:26.992Z,6.90
2018-07-26T13:51:56.735Z,4.95
2018-07-26T13:54:26.582Z,5.28
2018-07-26T13:56:56.769Z,5.10
2018-07-26T13:59:26.314Z,4.78
2018-07-26T14:01:56.085Z,4.97
2018-07-26T14:04:26.147Z,4.53
2018-07-26T14:06:56.025Z,4.80
2018-07-26T14:09:26.132Z,5.92
2018-07-26T14:11:56.242Z,5.10
2018-07-26T14:14:26.224Z,5.05
2018-07-26T14:16:56.162Z,4.55
2018-07-26T14:19:26.155Z,4.37
2018-07-26T14:21:55.967Z,5.35
2018-07-26T14:24:26.214Z,4.97
2018-07-26T14:26:56.003Z,5.67
2018-07-26T14:29:25.822Z,6.22
2018-07-26T14:31:55.447Z,4.58
2018-07-26T14:34:25.716Z,5.00
2018-07-26T14:36:55.628Z,4.97
2018-07-26T14:39:25.493Z,4.62
2018-07-26T14:41:55.052Z,4.62
2018-07-26T14:44:25.165Z,4.33
2018-07-26T14:46:55.546Z,4.42
2018-07-26T14:49:25.495Z,3.80
2018-07-26T14:51:55.364Z,4.25
2018-07-26T14:54:25.283Z,4.28
2018-07-26T14:56:54.965Z,4.60
2018-07-26T14:59:24.489Z,5.25
2018-07-26T15:01:54.595Z,5.62
2018-07-26T15:04:24.419Z,6.60
2018-07-26T15:06:54.300Z,4.87
2018-07-26T15:09:24.102Z,6.75
2018-07-26T15:11:53.922Z,7.08
2018-07-26T15:14:24.089Z,6.42
2018-07-26T15:16:53.921Z,5.30
2018-07-26T15:19:23.735Z,4.80
2018-07-26T15:21:53.761Z,4.90
2018-07-26T15:24:23.958Z,4.95
2018-07-26T15:26:53.635Z,4.90
2018-07-26T15:29:23.295Z,5.22
2018-07-26T15:31:52.903Z,5.22
2018-07-26T15:34:22.839Z,6.30
2018-07-26T15:36:52.689Z,5.28
2018-07-26T15:39:22.511Z,5.35
2018-07-26T15:41:52.033Z,5.55
2018-07-26T15:44:21.802Z,5.08
2018-07-26T15:46:51.700Z,6.22
2018-07-26T15:49:21.640Z,5.12
2018-07-26T15:51:51.636Z,5.40
2018-07-26T15:54:21.655Z,6.62
2018-07-26T15:56:51.170Z,7.05
2018-07-26T15:59:20.801Z,6.12
2018-07-26T16:01:50.424Z,5.42
2018-07-26T16:04:20.358Z,5.50
2018-07-26T16:06:50.199Z,5.90
2018-07-26T16:09:19.819Z,5.65
2018-07-26T16:11:49.808Z,6.20
2018-07-26T16:14:19.400Z,6.37
2018-07-26T16:16:49.030Z,7.20
2018-07-26T16:19:19.150Z,6.50
2018-07-26T16:21:49.196Z,7.10
2018-07-26T16:24:19.806Z,7.50
2018-07-26T16:26:49.374Z,7.97
2018-07-26T16:29:18.957Z,7.28
2018-07-26T16:31:48.658Z,7.25
2018-07-26T16:34:18.587Z,8.18
2018-07-26T16:36:48.346Z,7.50
2018-07-26T16:39:18.310Z,7.30
2018-07-26T16:41:48.131Z,7.30
2018-07-26T16:44:18.035Z,7.53
2018-07-26T16:46:48.191Z,7.20
2018-07-26T16:49:17.719Z,9.15
2018-07-26T16:51:47.720Z,8.23
2018-07-26T16:54:17.813Z,7.67
2018-07-26T16:56:47.616Z,7.35
2018-07-26T16:59:17.439Z,6.80
2018-07-26T17:01:47.028Z,6.78
2018-07-26T17:04:16.859Z,6.65
2018-07-26T17:06:46.539Z,6.92
2018-07-26T17:09:16.438Z,7.80
2018-07-26T17:11:46.630Z,6.75
2018-07-26T17:14:16.649Z,7.10
2018-07-26T17:16:46.429Z,6.75
2018-07-26T17:19:16.368Z,6.85
2018-07-26T17:21:46.592Z,8.45
2018-07-26T17:24:16.385Z,5.50
2018-07-26T17:26:46.535Z,7.15
2018-07-26T17:29:16.376Z,6.12
2018-07-26T17:31:46.803Z,6.35
2018-07-26T17:34:16.718Z,6.50
2018-07-26T17:36:46.615Z,6.22
2018-07-26T17:39:16.740Z,7.05
2018-07-26T17:41:52.006Z,6.15
2018-07-26T17:44:22.101Z,5.70
2018-07-26T17:46:51.795Z,5.45
2018-07-26T17:49:21.782Z,5.75
2018-07-26T17:51:51.806Z,4.90
2018-07-26T17:54:21.474Z,4.47
2018-07-26T17:56:51.682Z,5.67
2018-07-26T17:59:21.322Z,4.45
2018-07-26T18:01:51.107Z,4.15
2018-07-26T18:04:20.946Z,4.03
2018-07-26T18:06:50.561Z,3.80
2018-07-26T18:09:20.350Z,4.30
2018-07-26T18:11:50.220Z,3.60
2018-07-26T18:14:20.019Z,3.40
2018-07-26T18:16:49.934Z,3.33
2018-07-26T18:19:19.946Z,3.50
2018-07-26T18:21:49.946Z,3.70
2018-07-26T18:24:19.674Z,3.47
2018-07-26T18:26:49.206Z,3.93
2018-07-26T18:29:18.881Z,4.00
2018-07-26T18:31:48.938Z,3.97
2018-07-26T18:34:18.630Z,3.77
2018-07-26T18:36:48.512Z,4.57
2018-07-26T18:39:18.351Z,3.30
2018-07-26T18:41:47.994Z,3.80
2018-07-26T18:44:17.611Z,4.40
2018-07-26T18:46:47.450Z,4.73
2018-07-26T18:49:17.609Z,4.90
2018-07-26T18:51:47.231Z,4.40
2018-07-26T18:54:17.162Z,4.70
2018-07-26T18:56:46.729Z,4.90
2018-07-26T18:59:16.322Z,4.20
2018-07-26T19:01:45.986Z,4.30
2018-07-26T19:04:15.718Z,5.57
2018-07-26T19:06:45.467Z,5.50
2018-07-26T19:09:15.258Z,5.43
2018-07-26T19:11:45.593Z,5.70
2018-07-26T19:14:15.291Z,5.33
2018-07-26T19:16:45.295Z,6.10
2018-07-26T19:19:15.162Z,5.20
2018-07-26T19:21:44.912Z,5.33
2018-07-26T19:24:14.946Z,5.80
2018-07-26T19:26:44.507Z,6.00
2018-07-26T19:29:14.177Z,5.90
2018-07-26T19:31:44.431Z,5.80
2018-07-26T19:34:14.234Z,5.30
2018-07-26T19:36:43.990Z,7.77
2018-07-26T19:39:14.314Z,6.63
2018-07-26T19:41:44.286Z,7.63
2018-07-26T19:44:13.974Z,7.50
2018-07-26T19:46:43.526Z,6.60
2018-07-26T19:49:13.342Z,6.83
2018-07-26T19:51:43.151Z,6.83
2018-07-26T19:54:13.009Z,6.13
2018-07-26T19:56:42.663Z,7.17
2018-07-26T19:59:12.350Z,6.83
2018-07-26T20:01:42.435Z,6.67
2018-07-26T20:04:12.565Z,6.63
2018-07-26T20:06:42.258Z,6.73
2018-07-26T20:09:12.250Z,5.93
2018-07-26T20:11:42.065Z,6.43
2018-07-26T20:14:11.765Z,6.20
2018-07-26T20:16:41.789Z,6.37
2018-07-26T20:19:12.271Z,5.43
2018-07-26T20:21:42.135Z,5.03
2018-07-26T20:24:11.930Z,5.00
2018-07-26T20:26:41.635Z,5.27
2018-07-26T20:29:11.188Z,5.20
2018-07-26T20:31:40.912Z,5.27
2018-07-26T20:34:10.647Z,5.67
2018-07-26T20:36:40.132Z,4.97
2018-07-26T20:39:12.561Z,4.87
2018-07-26T20:41:42.471Z,5.23
2018-07-26T20:44:12.108Z,6.00
2018-07-26T20:46:42.006Z,4.87
2018-07-26T20:49:11.723Z,4.03
2018-07-26T20:51:41.806Z,5.47
2018-07-26T20:54:11.647Z,5.17
2018-07-26T20:56:41.259Z,5.10
2018-07-26T20:59:10.867Z,5.37
2018-07-26T21:01:40.642Z,5.17
2018-07-26T21:04:10.386Z,4.90
2018-07-26T21:06:40.134Z,4.60
2018-07-26T21:09:12.755Z,5.47
2018-07-26T21:11:42.882Z,4.60
2018-07-26T21:14:13.023Z,5.30
2018-07-26T21:16:42.693Z,5.50
2018-07-26T21:19:12.439Z,5.10
2018-07-26T21:21:42.620Z,4.83
2018-07-26T21:24:12.454Z,5.73
2018-07-26T21:26:42.198Z,4.93
2018-07-26T21:29:11.918Z,4.70
2018-07-26T21:31:41.767Z,5.90
2018-07-26T21:34:11.485Z,5.33
2018-07-26T21:36:41.250Z,5.63
2018-07-26T21:39:11.835Z,5.27
2018-07-26T21:41:41.803Z,4.87
2018-07-26T21:44:11.460Z,5.63
2018-07-26T21:46:41.174Z,4.97
2018-07-26T21:49:10.885Z,4.73
2018-07-26T21:51:40.550Z,5.27
2018-07-26T21:54:10.650Z,5.47
2018-07-26T21:56:40.322Z,5.87
2018-07-26T21:59:09.989Z,5.30
2018-07-26T22:01:40.259Z,5.17
2018-07-26T22:04:10.295Z,5.73
2018-07-26T22:06:40.384Z,6.00
2018-07-26T22:09:11.710Z,5.97
2018-07-26T22:11:41.921Z,5.50
2018-07-26T22:14:11.990Z,6.03
2018-07-26T22:16:42.020Z,5.80
2018-07-26T22:19:12.082Z,5.63
2018-07-26T22:21:42.227Z,5.90
2018-07-26T22:24:11.925Z,5.60
2018-07-26T22:26:41.545Z,5.57
2018-07-26T22:29:11.253Z,4.93
2018-07-26T22:31:41.214Z,4.87
2018-07-26T22:34:11.311Z,5.53
2018-07-26T22:36:41.330Z,4.77
2018-07-26T22:39:12.175Z,5.77
2018-07-26T22:41:42.603Z,5.40
2018-07-26T22:44:12.593Z,4.97
2018-07-26T22:46:42.657Z,4.67
2018-07-26T22:49:12.654Z,5.17
2018-07-26T22:51:42.868Z,4.90
2018-07-26T22:54:12.946Z,5.40
2018-07-26T22:56:42.661Z,5.03
2018-07-26T22:59:12.415Z,5.43
2018-07-26T23:01:42.579Z,5.27
2018-07-26T23:04:12.428Z,5.40
2018-07-26T23:06:42.541Z,5.47
2018-07-26T23:09:12.566Z,4.20
2018-07-26T23:11:42.743Z,5.50
2018-07-26T23:14:12.612Z,4.80
2018-07-26T23:16:42.642Z,5.20
2018-07-26T23:19:12.710Z,5.00
2018-07-26T23:21:42.587Z,5.43
2018-07-26T23:24:12.299Z,5.80
2018-07-26T23:26:42.072Z,4.93
2018-07-26T23:29:11.811Z,5.67
2018-07-26T23:31:41.979Z,5.17
2018-07-26T23:34:11.621Z,5.70
2018-07-26T23:36:41.458Z,5.50
2018-07-26T23:39:12.575Z,5.53
2018-07-26T23:41:42.569Z,4.70
2018-07-26T23:44:12.581Z,5.50
2018-07-26T23:46:42.203Z,4.63
2018-07-26T23:49:12.190Z,5.00
2018-07-26T23:51:41.827Z,4.73
2018-07-26T23:54:11.466Z,5.17
2018-07-26T23:56:41.103Z,5.27
2018-07-26T23:59:10.683Z,4.93
